CFC8 weather

Flamboro Centre Airport
Flamborough, Ontario, Canada

Public forecast

Using degrees Celsius for public forecast. Weather courtesy of forecast.io.

METAR (pilot weather report)

Closest report is John C. Munro Hamilton International Airport, 11.9 nm (22.0 km) S. Retrieved 2019/01/20 02:00 UTC (31 minutes ago):

CYHM 200200Z 03020G27KT 3/4SM R12/P6000FT/U -SN BLSN VV009 M14/M16 A2989 RMK SN8 SLP143

TAF (pilot weather forecast)

Forecast is more than 12 hours old.

Closest forecast is John C. Munro Hamilton International Airport, 11.9 nm (22.0 km) S. Retrieved 2019/01/19 00:39 UTC (1 day ago):

TAF CYHM 192338Z 2000/2024 03015G25KT 1/4SM -SN BLSN VV005 TEMPO 2000/2010 1SM -SN VV010 FM201000 02018G28KT 2SM -SN BLSN OVC020 FM201200 01015G25KT 4SM -SN BLSN BKN020 FM201500 36015G25KT 6SM BLSN BKN030 FM201700 35012G22KT P6SM SCT030 RMK NXT FCST BY 200600Z